Time;durP1;ratioP1;P1;durP2;ratioP2;P2;SDS_P1;SDS_P2;PMS_P1;PMS_P2;Temp;Humidity;BMP_temperature;BMP_pressure;BME280_temperature;BME280_humidity;BME280_pressure;Samples;Min_cycle;Max_cycle;Signal;HPM_P1;HPM_P2
2021/05/30 00:01:59;;;;;;;8.93;5.78;;;9.20;92.00;;;;;;5062078;28;20212;-90
2021/05/30 00:04:28;;;;;;;8.35;5.70;;;9.20;92.10;;;;;;5060887;28;20223;-88
2021/05/30 00:06:55;;;;;;;8.73;5.57;;;9.40;92.60;;;;;;5049931;28;20226;-88
2021/05/30 00:09:22;;;;;;;7.35;6.05;;;9.40;91.90;;;;;;5066871;28;20236;-89
2021/05/30 00:11:49;;;;;;;8.10;5.80;;;9.40;92.20;;;;;;5067248;28;20202;-88
2021/05/30 00:14:15;;;;;;;7.55;5.60;;;9.40;92.10;;;;;;5067452;28;20243;-88
2021/05/30 00:16:42;;;;;;;7.78;5.00;;;9.40;91.70;;;;;;5067440;28;20194;-88
2021/05/30 00:19:08;;;;;;;7.55;5.57;;;9.40;92.10;;;;;;5066132;28;20289;-89
2021/05/30 00:21:35;;;;;;;8.38;5.80;;;9.40;92.20;;;;;;5064819;28;20224;-89
2021/05/30 00:24:01;;;;;;;8.77;6.13;;;9.30;91.60;;;;;;5065579;28;20252;-88
2021/05/30 00:26:28;;;;;;;8.70;5.70;;;9.20;92.20;;;;;;5067318;28;20292;-88
2021/05/30 00:28:55;;;;;;;8.75;6.68;;;9.30;92.50;;;;;;5066615;28;20560;-88
2021/05/30 00:31:22;;;;;;;7.23;6.00;;;9.30;92.30;;;;;;5066122;28;20262;-88
2021/05/30 00:33:49;;;;;;;8.00;6.47;;;9.30;91.70;;;;;;5056736;28;20304;-89
2021/05/30 00:36:15;;;;;;;7.68;6.30;;;9.20;92.50;;;;;;5070289;28;20201;-89
2021/05/30 00:38:42;;;;;;;9.17;6.50;;;9.10;92.40;;;;;;5072876;28;20575;-90
2021/05/30 00:41:08;;;;;;;8.23;6.20;;;8.90;92.40;;;;;;5073146;28;20201;-89
2021/05/30 00:43:44;;;;;;;8.30;6.00;;;8.80;92.90;;;;;;5062087;28;20234;-88
2021/05/30 00:48:57;;;;;;;9.70;5.43;;;8.90;92.90;;;;;;5052081;28;20229;-90
2021/05/30 00:51:26;;;;;;;7.33;5.70;;;8.90;92.90;;;;;;5052918;28;20233;-88
2021/05/30 00:53:52;;;;;;;6.90;5.73;;;8.90;92.70;;;;;;5075724;28;20241;-88
2021/05/30 00:56:19;;;;;;;7.63;5.40;;;8.90;92.80;;;;;;5083139;28;20228;-88
2021/05/30 00:58:46;;;;;;;6.27;5.20;;;8.90;92.80;;;;;;5089720;28;20229;-88
2021/05/30 01:01:13;;;;;;;8.53;5.00;;;8.80;93.20;;;;;;5087511;28;20252;-90
2021/05/30 01:03:40;;;;;;;5.07;4.30;;;8.80;92.80;;;;;;5088934;28;20303;-91
2021/05/30 01:06:08;;;;;;;6.50;4.60;;;8.70;93.20;;;;;;5046963;28;20245;-90
2021/05/30 01:08:35;;;;;;;6.77;4.63;;;8.70;93.10;;;;;;5046240;28;20223;-89
2021/05/30 01:11:02;;;;;;;7.33;4.47;;;8.70;93.10;;;;;;5046761;28;20224;-90
2021/05/30 01:13:29;;;;;;;6.10;4.60;;;8.70;93.10;;;;;;5054801;28;20211;-90
2021/05/30 01:15:57;;;;;;;5.07;4.57;;;8.70;92.80;;;;;;5047881;28;20230;-88
2021/05/30 01:18:26;;;;;;;6.47;4.10;;;8.50;93.10;;;;;;5051928;28;20679;-87
2021/05/30 01:28:01;;;;;;;8.93;5.10;;;8.40;93.50;;;;;;5052077;28;20210;-88
2021/05/30 01:34:35;;;;;;;5.57;3.87;;;8.40;94.00;;;;;;5047483;28;20225;-90
2021/05/30 01:37:30;;;;;;;7.57;4.30;;;8.30;94.00;;;;;;5047924;28;20626;-90
2021/05/30 01:40:13;;;;;;;6.20;3.83;;;8.20;93.90;;;;;;5046825;28;20203;-90
2021/05/30 01:42:40;;;;;;;7.23;3.93;;;8.20;94.50;;;;;;5046466;28;20214;-90
2021/05/30 01:45:30;;;;;;;5.60;3.80;;;8.10;94.00;;;;;;5047217;28;20229;-90
2021/05/30 01:47:58;;;;;;;5.20;3.80;;;7.90;94.10;;;;;;5047353;28;20244;-90
2021/05/30 01:50:25;;;;;;;4.23;3.47;;;8.00;94.60;;;;;;5047193;28;20186;-90
2021/05/30 02:10:45;;;;;;;6.33;4.10;;;7.60;94.90;;;;;;5066648;28;20213;-88
2021/05/30 02:13:12;;;;;;;6.43;3.70;;;7.60;94.80;;;;;;5066893;28;20230;-88
2021/05/30 02:15:39;;;;;;;5.23;3.90;;;7.60;94.90;;;;;;5067980;28;20206;-88
2021/05/30 02:18:06;;;;;;;5.97;3.30;;;7.70;95.10;;;;;;5068272;28;20289;-88
2021/05/30 02:20:38;;;;;;;4.63;3.90;;;7.70;94.70;;;;;;5067922;28;20667;-89
2021/05/30 02:23:05;;;;;;;4.70;3.60;;;7.70;94.50;;;;;;5067685;28;20625;-87
2021/05/30 02:25:31;;;;;;;5.83;3.87;;;7.80;94.60;;;;;;5067732;28;20229;-87
2021/05/30 02:27:59;;;;;;;5.53;4.00;;;7.80;94.70;;;;;;5068835;28;20230;-88
2021/05/30 02:30:26;;;;;;;5.17;4.10;;;7.80;94.60;;;;;;5068403;28;20255;-90
2021/05/30 02:32:52;;;;;;;4.97;3.80;;;7.70;94.30;;;;;;5066570;28;20312;-88
2021/05/30 02:35:19;;;;;;;6.43;3.93;;;7.60;94.60;;;;;;5067975;28;20201;-89
2021/05/30 02:37:45;;;;;;;4.60;3.80;;;7.60;94.80;;;;;;5067158;28;20216;-88
2021/05/30 02:40:13;;;;;;;6.00;3.90;;;7.60;94.90;;;;;;5066810;28;20265;-91
2021/05/30 02:42:39;;;;;;;5.17;4.20;;;7.70;94.70;;;;;;5074102;28;20197;-88
2021/05/30 02:45:08;;;;;;;5.27;3.50;;;7.60;94.60;;;;;;5070328;28;20225;-88
2021/05/30 02:47:35;;;;;;;4.27;3.47;;;7.70;94.60;;;;;;5068059;28;20229;-89
2021/05/30 02:50:03;;;;;;;4.47;3.57;;;7.70;94.60;;;;;;5079209;28;20205;-90
2021/05/30 02:52:29;;;;;;;3.90;3.20;;;7.80;94.30;;;;;;5074017;28;20205;-88
2021/05/30 02:54:56;;;;;;;5.33;3.83;;;7.80;94.30;;;;;;5079417;28;20761;-88
2021/05/30 02:57:22;;;;;;;5.00;3.73;;;7.80;94.50;;;;;;5071966;28;20193;-89
2021/05/30 02:59:49;;;;;;;4.70;3.40;;;7.80;94.30;;;;;;5072244;28;20233;-87
2021/05/30 03:02:16;;;;;;;4.50;3.40;;;7.80;94.50;;;;;;5072142;28;20204;-88
2021/05/30 03:04:42;;;;;;;5.13;3.27;;;7.90;94.60;;;;;;5071826;28;20226;-88
2021/05/30 03:07:09;;;;;;;4.17;3.40;;;7.90;94.50;;;;;;5072274;28;20205;-88
2021/05/30 03:13:02;;;;;;;5.33;3.80;;;8.00;94.60;;;;;;5064401;28;20197;-88
2021/05/30 03:16:15;;;;;;;5.07;3.60;;;8.00;94.40;;;;;;5050222;28;20187;-88
2021/05/30 03:18:42;;;;;;;5.40;3.77;;;7.90;94.10;;;;;;5057861;28;20312;-88
2021/05/30 03:21:09;;;;;;;5.00;3.87;;;7.90;94.20;;;;;;5059761;28;20194;-88
2021/05/30 03:23:36;;;;;;;7.13;4.27;;;7.80;94.10;;;;;;5058878;28;20236;-88
2021/05/30 03:26:02;;;;;;;5.17;3.60;;;7.70;94.30;;;;;;5077555;28;20203;-88
2021/05/30 03:28:29;;;;;;;5.47;3.57;;;7.70;94.70;;;;;;5067702;28;20218;-89
2021/05/30 03:30:55;;;;;;;4.23;3.53;;;7.70;94.70;;;;;;5064472;28;20201;-90
2021/05/30 03:33:22;;;;;;;4.13;3.43;;;7.70;94.50;;;;;;5057705;28;20233;-88
2021/05/30 03:35:49;;;;;;;3.77;3.33;;;7.70;94.70;;;;;;5070366;28;20203;-90
2021/05/30 03:38:17;;;;;;;4.80;3.33;;;7.70;94.50;;;;;;5058276;28;20252;-89
2021/05/30 03:40:47;;;;;;;5.33;3.60;;;7.70;94.60;;;;;;5048349;28;20210;-88
2021/05/30 03:43:14;;;;;;;4.27;3.40;;;7.80;94.60;;;;;;5060090;28;20233;-89
2021/05/30 03:45:40;;;;;;;3.90;3.50;;;7.80;94.70;;;;;;5074745;28;20556;-88
2021/05/30 03:48:09;;;;;;;4.27;3.67;;;7.80;94.50;;;;;;5047760;28;20230;-89
2021/05/30 03:50:37;;;;;;;6.00;3.60;;;7.80;94.40;;;;;;5071027;28;20201;-90
2021/05/30 03:53:04;;;;;;;4.00;3.30;;;7.90;94.30;;;;;;5088121;28;20581;-89
2021/05/30 03:55:31;;;;;;;4.13;3.50;;;7.90;94.20;;;;;;5068709;28;20202;-89
2021/05/30 03:57:57;;;;;;;5.40;3.80;;;7.90;94.20;;;;;;5068782;28;20225;-91
2021/05/30 04:00:24;;;;;;;5.60;3.47;;;7.90;94.00;;;;;;5068955;28;20205;-90
2021/05/30 04:02:50;;;;;;;4.20;3.80;;;7.90;93.70;;;;;;5067459;28;20251;-88
2021/05/30 04:05:17;;;;;;;5.07;3.83;;;7.90;93.80;;;;;;5070465;28;20253;-90
2021/05/30 04:07:44;;;;;;;6.50;3.87;;;7.80;93.50;;;;;;5079102;28;20223;-89
2021/05/30 04:10:13;;;;;;;4.90;3.60;;;7.70;93.70;;;;;;5083824;28;20208;-88
2021/05/30 04:12:40;;;;;;;5.63;3.50;;;7.80;94.40;;;;;;5067970;28;20202;-89
2021/05/30 04:15:08;;;;;;;4.20;3.23;;;7.90;94.00;;;;;;5070520;28;20208;-88
2021/05/30 04:17:35;;;;;;;3.57;3.27;;;7.90;94.00;;;;;;5069585;28;20225;-88
2021/05/30 04:20:01;;;;;;;5.93;3.57;;;8.00;94.00;;;;;;5070234;28;20220;-88
2021/05/30 04:22:28;;;;;;;4.23;3.27;;;8.10;94.10;;;;;;5070273;28;20214;-88
2021/05/30 04:24:54;;;;;;;6.10;3.57;;;8.10;93.70;;;;;;5069739;28;20761;-89
2021/05/30 04:27:22;;;;;;;4.10;3.50;;;8.10;93.80;;;;;;5068645;28;20284;-89
2021/05/30 04:29:48;;;;;;;6.20;4.47;;;8.20;94.00;;;;;;5057713;28;20289;-88
2021/05/30 04:32:32;;;;;;;3.90;3.40;;;8.20;93.70;;;;;;5070649;28;20209;-88
2021/05/30 04:35:08;;;;;;;4.60;3.57;;;8.20;93.50;;;;;;5071192;28;20266;-87
2021/05/30 04:37:34;;;;;;;5.13;3.80;;;8.30;93.70;;;;;;5070812;28;20200;-88
2021/05/30 04:40:01;;;;;;;4.30;3.53;;;8.40;93.50;;;;;;5070972;28;20198;-87
2021/05/30 04:42:59;;;;;;;4.57;3.43;;;8.50;93.40;;;;;;5071418;28;20204;-87
2021/05/30 04:49:20;;;;;;;4.07;3.60;;;8.60;93.30;;;;;;5073433;28;20233;-87
2021/05/30 04:52:33;;;;;;;6.63;3.40;;;8.70;93.20;;;;;;5071523;28;20279;-88
2021/05/30 05:02:46;;;;;;;4.67;3.80;;;9.10;92.90;;;;;;5089618;23;20225;-88
2021/05/30 05:05:14;;;;;;;3.43;3.13;;;9.30;92.50;;;;;;5110111;28;20273;-88
2021/05/30 05:07:46;;;;;;;4.70;3.93;;;9.30;92.40;;;;;;5108736;28;20263;-88
2021/05/30 05:10:13;;;;;;;5.13;3.70;;;9.40;92.30;;;;;;5108407;28;20197;-89
2021/05/30 05:12:39;;;;;;;4.70;4.20;;;9.50;92.00;;;;;;5108543;28;20257;-88
2021/05/30 05:15:07;;;;;;;3.97;3.40;;;9.60;92.00;;;;;;5109711;28;20232;-88
2021/05/30 05:17:34;;;;;;;5.85;4.32;;;9.70;92.00;;;;;;5108471;28;20204;-88
2021/05/30 05:20:01;;;;;;;4.38;3.97;;;9.70;92.00;;;;;;5108588;28;20204;-88
2021/05/30 05:22:27;;;;;;;4.45;4.05;;;9.80;90.90;;;;;;5110235;28;20200;-88
2021/05/30 05:24:54;;;;;;;4.80;4.35;;;9.80;91.30;;;;;;5108652;28;20242;-88
2021/05/30 05:27:20;;;;;;;5.00;4.50;;;9.80;90.60;;;;;;5109534;28;20200;-88
2021/05/30 05:29:47;;;;;;;5.07;4.35;;;9.90;90.60;;;;;;5109449;28;20219;-88
2021/05/30 05:32:13;;;;;;;5.18;4.18;;;10.00;88.90;;;;;;5110566;28;20276;-88
2021/05/30 05:34:40;;;;;;;4.78;4.28;;;10.10;89.90;;;;;;5109536;28;20271;-87
2021/05/30 05:37:09;;;;;;;4.97;4.13;;;10.30;86.70;;;;;;5111914;28;20248;-88
2021/05/30 05:40:00;;;;;;;5.10;4.25;;;10.80;85.40;;;;;;5112086;28;20288;-89
2021/05/30 05:42:30;;;;;;;4.40;4.00;;;11.50;79.80;;;;;;5110606;28;20192;-88
2021/05/30 05:44:56;;;;;;;4.40;3.95;;;12.10;77.70;;;;;;5110388;28;20685;-88
2021/05/30 05:47:23;;;;;;;5.50;4.22;;;12.50;75.50;;;;;;5112266;28;20189;-88
2021/05/30 06:19:09;;;;;;;5.97;5.10;;;11.90;75.10;;;;;;4972595;28;20229;-89
2021/05/30 06:21:35;;;;;;;5.85;4.80;;;11.90;75.10;;;;;;4977618;28;20209;-89
2021/05/30 06:24:02;;;;;;;7.45;4.85;;;12.00;73.80;;;;;;4983037;28;20319;-90
2021/05/30 06:26:28;;;;;;;6.55;4.95;;;12.10;75.20;;;;;;4967093;29;20197;-89
2021/05/30 06:28:54;;;;;;;6.57;4.97;;;12.20;72.50;;;;;;4966905;28;20643;-89
2021/05/30 06:31:23;;;;;;;6.13;4.80;;;12.30;70.90;;;;;;4967188;29;20205;-89
2021/05/30 06:33:49;;;;;;;6.15;4.78;;;12.30;69.60;;;;;;4966627;28;20308;-88
2021/05/30 06:36:18;;;;;;;6.07;4.93;;;12.40;70.00;;;;;;4966429;29;20197;-89
2021/05/30 06:38:45;;;;;;;6.65;5.40;;;12.50;65.80;;;;;;4966242;28;20225;-90
2021/05/30 06:41:48;;;;;;;6.13;4.65;;;12.60;68.00;;;;;;4966672;29;20197;-89
2021/05/30 06:44:14;;;;;;;5.30;4.50;;;12.70;63.60;;;;;;4955957;28;20249;-89
2021/05/30 06:46:40;;;;;;;7.70;4.70;;;12.70;66.30;;;;;;4947973;29;20200;-89
2021/05/30 06:49:07;;;;;;;7.25;4.88;;;12.80;64.40;;;;;;4958867;29;20233;-89
2021/05/30 06:51:34;;;;;;;5.50;4.40;;;12.80;64.50;;;;;;4967744;28;20231;-89
2021/05/30 07:25:07;;;;;;;7.63;4.78;;;14.50;50.90;;;;;;5085475;28;20225;-89
2021/05/30 07:27:46;;;;;;;5.20;4.07;;;14.40;50.80;;;;;;5071543;28;20201;-91
2021/05/30 07:30:13;;;;;;;5.82;4.57;;;14.30;50.70;;;;;;5090321;28;20273;-89
2021/05/30 07:32:39;;;;;;;5.25;4.32;;;14.10;55.40;;;;;;5087137;28;20223;-89
2021/05/30 07:35:06;;;;;;;6.70;4.15;;;14.30;53.80;;;;;;5086912;28;20197;-88
2021/05/30 07:37:33;;;;;;;6.38;4.32;;;14.30;50.70;;;;;;5091713;28;20264;-89
2021/05/30 07:39:59;;;;;;;4.88;3.92;;;13.90;53.30;;;;;;5073553;28;20217;-88
2021/05/30 07:42:28;;;;;;;6.38;4.63;;;14.00;52.00;;;;;;5073767;28;20269;-92
2021/05/30 07:44:55;;;;;;;5.32;4.22;;;14.00;51.80;;;;;;5078523;28;20257;-88
2021/05/30 07:47:23;;;;;;;6.85;4.45;;;13.80;53.60;;;;;;5058096;28;20202;-88
2021/05/30 07:53:08;;;;;;;5.68;4.68;;;14.00;54.10;;;;;;4997688;28;20228;-89
2021/05/30 07:58:57;;;;;;;4.40;3.78;;;14.10;54.10;;;;;;5057876;28;20216;-89
2021/05/30 08:01:24;;;;;;;5.10;3.63;;;14.40;50.80;;;;;;5073823;28;20264;-91
2021/05/30 08:03:50;;;;;;;4.93;4.07;;;14.40;49.90;;;;;;5070180;28;20237;-89
2021/05/30 08:06:17;;;;;;;4.43;4.03;;;14.80;49.00;;;;;;5061236;28;20265;-89
2021/05/30 08:08:43;;;;;;;5.18;4.60;;;15.30;46.90;;;;;;5055201;28;20668;-89
2021/05/30 08:11:09;;;;;;;5.40;4.60;;;15.30;46.50;;;;;;5062207;28;20571;-89
2021/05/30 08:13:38;;;;;;;4.32;3.92;;;15.60;46.40;;;;;;5057190;28;20276;-89
2021/05/30 08:16:05;;;;;;;4.00;3.55;;;15.80;45.20;;;;;;5062647;28;20213;-90
2021/05/30 08:18:32;;;;;;;4.97;3.40;;;16.30;43.20;;;;;;5067837;28;20587;-89
2021/05/30 08:20:58;;;;;;;3.78;2.53;;;17.20;38.50;;;;;;5071058;28;20200;-87
2021/05/30 08:23:25;;;;;;;3.75;2.50;;;18.30;33.10;;;;;;5060690;28;20552;-90
2021/05/30 08:25:51;;;;;;;3.60;2.50;;;20.10;26.80;;;;;;5062651;28;20228;-85
2021/05/30 08:28:17;;;;;;;3.85;2.75;;;22.10;23.50;;;;;;5060510;28;20230;-87
2021/05/30 08:30:44;;;;;;;2.72;2.40;;;23.40;19.90;;;;;;5060321;28;20540;-86
2021/05/30 08:33:11;;;;;;;5.78;2.60;;;23.70;18.70;;;;;;5050703;28;20220;-86
2021/05/30 08:35:38;;;;;;;5.53;3.63;;;24.30;18.10;;;;;;5053416;28;20197;-87
2021/05/30 08:38:04;;;;;;;3.42;2.90;;;24.40;19.90;;;;;;5053219;28;20221;-88
2021/05/30 08:40:31;;;;;;;3.40;3.10;;;25.40;19.50;;;;;;5053556;28;20193;-86
2021/05/30 08:42:57;;;;;;;3.40;3.10;;;26.30;17.00;;;;;;5039983;28;20226;-89
2021/05/30 08:45:24;;;;;;;3.30;3.00;;;24.70;15.70;;;;;;5032518;28;20620;-86
2021/05/30 08:47:50;;;;;;;3.38;2.85;;;22.70;20.50;;;;;;5033314;28;20194;-88
2021/05/30 08:50:18;;;;;;;3.45;3.00;;;23.20;21.50;;;;;;5048407;28;20197;-87
2021/05/30 08:52:45;;;;;;;4.03;3.10;;;23.70;17.90;;;;;;5051270;28;20236;-87
2021/05/30 08:55:12;;;;;;;5.20;2.80;;;23.10;19.10;;;;;;5057855;28;20236;-87
2021/05/30 08:57:39;;;;;;;3.45;3.15;;;22.90;20.00;;;;;;5052525;28;20652;-87
2021/05/30 09:00:08;;;;;;;2.97;2.70;;;24.20;19.40;;;;;;5053441;28;20276;-86
2021/05/30 09:02:35;;;;;;;5.72;3.42;;;26.20;16.90;;;;;;5051645;28;20197;-87
2021/05/30 09:05:03;;;;;;;3.40;3.10;;;27.20;15.30;;;;;;5062544;28;20221;-87
2021/05/30 09:07:53;;;;;;;3.63;3.30;;;25.20;17.20;;;;;;5048013;28;20588;-86
2021/05/30 09:10:23;;;;;;;8.02;3.20;;;24.80;17.20;;;;;;5050173;28;20253;-87
2021/05/30 09:13:04;;;;;;;3.45;3.10;;;23.40;19.60;;;;;;5058776;28;20690;-86
2021/05/30 09:15:51;;;;;;;4.90;3.40;;;22.10;20.40;;;;;;5036293;28;20204;-86
2021/05/30 09:18:19;;;;;;;4.28;3.30;;;20.90;23.80;;;;;;5027017;28;20222;-86
2021/05/30 09:20:53;;;;;;;4.95;3.42;;;20.40;25.80;;;;;;5037663;28;20202;-86
2021/05/30 09:23:31;;;;;;;3.72;3.17;;;19.50;26.70;;;;;;5040344;28;20315;-86
2021/05/30 09:26:12;;;;;;;5.28;3.30;;;19.30;28.40;;;;;;5065774;28;20226;-86
2021/05/30 09:28:40;;;;;;;4.07;3.30;;;21.20;27.00;;;;;;5035042;28;20639;-87
2021/05/30 09:31:06;;;;;;;5.38;3.15;;;22.80;19.40;;;;;;5032819;28;20209;-86
2021/05/30 09:33:34;;;;;;;3.15;2.85;;;24.70;17.80;;;;;;5031059;28;20229;-86
2021/05/30 09:36:03;;;;;;;3.10;2.80;;;25.80;14.50;;;;;;5062223;28;20216;-88
2021/05/30 09:38:36;;;;;;;3.88;3.03;;;27.00;15.10;;;;;;5049873;28;20237;-87
2021/05/30 09:41:06;;;;;;;3.00;2.80;;;27.20;16.10;;;;;;5025447;28;20201;-87
2021/05/30 09:43:35;;;;;;;2.78;2.58;;;27.70;13.10;;;;;;5027168;28;20226;-88
2021/05/30 09:46:11;;;;;;;3.50;3.20;;;28.70;13.90;;;;;;5025545;28;20234;-86
2021/05/30 09:48:43;;;;;;;3.08;2.85;;;28.70;11.80;;;;;;5022248;28;20766;-86
2021/05/30 09:51:28;;;;;;;3.83;3.20;;;26.20;13.00;;;;;;5024616;28;20633;-86
2021/05/30 09:53:59;;;;;;;5.82;2.75;;;24.30;13.80;;;;;;5029856;28;20234;-85
2021/05/30 09:56:30;;;;;;;4.05;2.50;;;23.20;15.50;;;;;;5025502;28;20251;-87
2021/05/30 09:58:57;;;;;;;5.60;2.47;;;23.70;17.00;;;;;;5024770;28;20244;-86
2021/05/30 10:01:25;;;;;;;3.25;2.72;;;23.60;16.10;;;;;;5027837;28;20240;-87
2021/05/30 10:03:52;;;;;;;3.40;2.80;;;24.40;15.90;;;;;;5034314;28;20217;-86
2021/05/30 10:06:19;;;;;;;3.63;3.00;;;24.60;14.50;;;;;;5037848;28;20202;-85
2021/05/30 10:08:46;;;;;;;5.25;2.90;;;24.40;15.30;;;;;;5044964;28;20257;-86
2021/05/30 10:11:15;;;;;;;2.97;2.78;;;24.60;15.40;;;;;;5030465;28;20216;-86
2021/05/30 10:13:42;;;;;;;5.10;3.33;;;26.00;17.40;;;;;;5036976;28;20248;-87
2021/05/30 10:16:09;;;;;;;2.83;2.60;;;26.70;14.10;;;;;;5027133;28;20276;-88
2021/05/30 10:18:44;;;;;;;3.95;2.92;;;25.40;14.30;;;;;;5039587;28;20222;-85
2021/05/30 10:21:16;;;;;;;4.95;3.10;;;24.00;14.50;;;;;;5025934;28;20225;-86
2021/05/30 10:23:45;;;;;;;3.50;3.10;;;22.60;17.70;;;;;;5023144;28;20233;-85
2021/05/30 10:26:14;;;;;;;3.15;2.85;;;21.70;19.20;;;;;;5012737;28;20228;-86
2021/05/30 10:28:58;;;;;;;25.70;11.57;;;22.50;21.90;;;;;;5040352;28;20316;-85
2021/05/30 10:31:27;;;;;;;4.95;3.03;;;23.20;18.80;;;;;;5046243;28;20236;-88
2021/05/30 10:34:18;;;;;;;4.55;3.00;;;23.90;17.00;;;;;;5051995;28;20237;-85
2021/05/30 10:37:02;;;;;;;3.75;3.20;;;23.80;17.10;;;;;;5052484;28;20201;-86
2021/05/30 10:39:33;;;;;;;3.28;2.97;;;23.10;19.00;;;;;;5038683;28;20225;-86
2021/05/30 10:42:10;;;;;;;10.77;4.97;;;23.50;16.40;;;;;;5019019;28;20272;-86
2021/05/30 10:44:56;;;;;;;7.45;4.15;;;24.00;16.60;;;;;;5036868;28;20233;-87
2021/05/30 10:48:18;;;;;;;6.70;3.70;;;23.30;17.70;;;;;;5032656;28;20649;-86
2021/05/30 10:50:59;;;;;;;6.75;4.60;;;23.20;17.60;;;;;;5030807;28;20248;-86
2021/05/30 10:53:37;;;;;;;5.32;3.28;;;23.60;19.40;;;;;;5037436;28;20225;-86
2021/05/30 10:56:24;;;;;;;3.30;3.00;;;23.80;17.40;;;;;;5026788;28;20599;-86
2021/05/30 10:59:22;;;;;;;4.45;3.10;;;23.00;16.10;;;;;;5045748;28;20237;-87
2021/05/30 11:01:51;;;;;;;4.82;3.50;;;21.60;21.20;;;;;;5053149;28;20202;-84
2021/05/30 11:04:34;;;;;;;3.25;2.90;;;21.50;18.60;;;;;;5064294;28;20221;-86
2021/05/30 11:07:17;;;;;;;3.45;3.15;;;21.30;18.50;;;;;;5067689;28;20224;-86
2021/05/30 11:10:04;;;;;;;3.70;3.40;;;20.50;19.50;;;;;;5051039;28;20232;-86
2021/05/30 11:12:33;;;;;;;3.85;3.33;;;19.70;20.70;;;;;;5074462;28;20208;-88
2021/05/30 11:15:22;;;;;;;8.32;5.50;;;19.60;24.40;;;;;;5044471;28;20226;-89
2021/05/30 11:17:52;;;;;;;5.00;3.10;;;19.60;23.50;;;;;;5038173;28;20234;-88
2021/05/30 11:20:21;;;;;;;3.03;2.72;;;19.30;24.40;;;;;;5051624;28;20220;-86
2021/05/30 11:22:50;;;;;;;3.50;2.95;;;19.30;22.10;;;;;;5038101;28;20199;-87
2021/05/30 11:25:18;;;;;;;4.07;3.10;;;19.10;23.90;;;;;;5079395;28;20217;-86
2021/05/30 11:27:53;;;;;;;3.80;3.05;;;19.00;22.00;;;;;;5075949;28;20256;-87
2021/05/30 11:30:43;;;;;;;3.40;3.10;;;19.00;23.20;;;;;;5070613;28;20288;-89
2021/05/30 11:33:13;;;;;;;3.38;3.03;;;19.70;24.00;;;;;;5052419;28;20281;-88
2021/05/30 11:35:40;;;;;;;3.45;3.15;;;19.30;21.90;;;;;;5055672;28;20201;-87
2021/05/30 11:38:06;;;;;;;4.32;3.50;;;19.00;23.20;;;;;;5048189;28;20224;-87
2021/05/30 11:40:35;;;;;;;3.78;3.05;;;18.50;24.00;;;;;;5079922;28;20238;-87
2021/05/30 11:43:12;;;;;;;5.43;3.17;;;18.70;25.20;;;;;;5074325;28;20236;-86
2021/05/30 11:45:41;;;;;;;3.60;3.15;;;19.30;23.60;;;;;;5080610;28;20296;-87
2021/05/30 11:48:11;;;;;;;4.47;3.40;;;19.60;26.40;;;;;;5065866;28;20230;-89
2021/05/30 11:50:40;;;;;;;5.07;3.05;;;19.70;23.20;;;;;;5038107;28;20232;-90
2021/05/30 11:53:23;;;;;;;4.25;3.20;;;19.60;23.20;;;;;;5048777;28;20249;-89
2021/05/30 11:55:50;;;;;;;3.97;3.10;;;18.70;21.70;;;;;;5047548;28;20224;-89
2021/05/30 11:58:16;;;;;;;5.78;2.70;;;18.40;24.90;;;;;;5049078;28;20226;-89
2021/05/30 12:00:44;;;;;;;5.50;3.22;;;18.40;23.70;;;;;;5049773;28;20202;-90
2021/05/30 12:03:12;;;;;;;3.58;2.90;;;18.20;23.80;;;;;;5036561;28;20254;-89
2021/05/30 12:05:39;;;;;;;3.60;2.80;;;18.10;23.70;;;;;;5042445;28;20218;-89
2021/05/30 12:08:13;;;;;;;5.30;3.00;;;18.50;24.70;;;;;;5036217;28;20261;-88
2021/05/30 12:10:52;;;;;;;4.43;2.75;;;19.00;22.30;;;;;;5029777;28;20266;-88
2021/05/30 12:13:29;;;;;;;3.00;2.70;;;18.80;23.30;;;;;;5028937;28;20243;-87
2021/05/30 12:15:56;;;;;;;3.83;3.30;;;18.70;23.10;;;;;;5049208;28;20213;-89
2021/05/30 12:18:26;;;;;;;3.65;3.00;;;18.50;23.40;;;;;;5049400;28;20258;-90
2021/05/30 12:20:57;;;;;;;3.00;2.70;;;18.50;24.10;;;;;;5035009;28;20207;-88
2021/05/30 12:23:24;;;;;;;5.05;3.22;;;18.30;26.40;;;;;;5054553;28;20281;-88
2021/05/30 12:25:52;;;;;;;4.15;3.03;;;18.50;25.40;;;;;;5069493;28;20210;-90
2021/05/30 12:28:20;;;;;;;3.15;2.70;;;18.70;22.90;;;;;;5062699;28;20230;-88
2021/05/30 12:30:51;;;;;;;3.65;2.90;;;18.90;21.10;;;;;;5048941;28;20293;-87
2021/05/30 12:33:19;;;;;;;5.32;3.92;;;19.20;23.70;;;;;;5047435;28;20229;-88
2021/05/30 12:35:50;;;;;;;4.50;3.40;;;19.20;22.10;;;;;;5042909;28;20202;-88
2021/05/30 12:38:23;;;;;;;4.53;3.40;;;19.60;22.80;;;;;;5030323;28;20226;-88
2021/05/30 12:40:50;;;;;;;5.65;3.75;;;19.80;20.00;;;;;;5041265;28;20202;-88
2021/05/30 12:43:33;;;;;;;3.80;3.20;;;20.00;23.90;;;;;;5040453;28;20286;-88
2021/05/30 12:46:04;;;;;;;5.10;3.10;;;19.90;20.90;;;;;;5041466;28;20250;-89
2021/05/30 12:48:41;;;;;;;3.05;2.75;;;19.70;20.70;;;;;;5039167;28;20226;-88
2021/05/30 12:51:18;;;;;;;6.95;5.75;;;19.60;22.80;;;;;;5040185;28;20202;-88
2021/05/30 12:53:46;;;;;;;4.05;3.60;;;19.50;22.20;;;;;;5044208;28;20234;-88
2021/05/30 12:56:20;;;;;;;7.78;6.82;;;19.50;21.00;;;;;;5060587;28;20248;-88
2021/05/30 12:58:46;;;;;;;9.93;8.85;;;19.60;22.50;;;;;;5057112;28;20222;-87
2021/05/30 13:01:39;;;;;;;5.30;3.08;;;19.60;23.30;;;;;;5043256;28;20209;-88
2021/05/30 13:04:20;;;;;;;7.53;4.32;;;19.50;21.00;;;;;;5040925;28;20256;-88
2021/05/30 13:07:05;;;;;;;96.90;31.20;;;19.50;21.40;;;;;;5041962;28;20202;-88
2021/05/30 13:09:46;;;;;;;86.78;28.77;;;19.50;21.70;;;;;;5042281;28;20236;-88
2021/05/30 13:12:35;;;;;;;4.90;3.13;;;19.40;21.30;;;;;;5043291;28;20202;-88
2021/05/30 13:15:08;;;;;;;17.73;6.93;;;18.90;23.20;;;;;;5068091;28;20677;-88
2021/05/30 13:17:35;;;;;;;3.65;2.72;;;18.50;22.30;;;;;;5074354;28;20260;-89
2021/05/30 13:20:08;;;;;;;20.08;10.63;;;18.10;22.70;;;;;;5075951;28;20722;-89
2021/05/30 13:22:36;;;;;;;3.85;3.35;;;18.00;25.00;;;;;;5066632;28;20290;-90
2021/05/30 13:25:03;;;;;;;3.92;3.10;;;18.40;25.20;;;;;;5042997;28;20241;-88
2021/05/30 13:27:31;;;;;;;4.07;3.45;;;18.70;24.10;;;;;;5067767;28;20268;-88
2021/05/30 13:30:07;;;;;;;5.78;3.40;;;18.70;24.50;;;;;;5078421;28;20228;-88
2021/05/30 13:32:33;;;;;;;4.18;3.20;;;18.40;25.90;;;;;;5066868;28;20225;-88
2021/05/30 13:35:00;;;;;;;3.72;3.40;;;18.20;26.00;;;;;;5065370;28;20244;-88
2021/05/30 13:37:26;;;;;;;6.03;3.45;;;18.20;25.40;;;;;;5068140;28;20352;-88
2021/05/30 13:39:55;;;;;;;3.72;3.22;;;18.20;26.20;;;;;;5075705;28;20253;-88
2021/05/30 13:42:22;;;;;;;3.60;3.20;;;18.30;25.40;;;;;;5067478;28;20205;-88
2021/05/30 13:44:49;;;;;;;3.38;3.05;;;18.40;24.70;;;;;;5066504;28;20225;-88
2021/05/30 13:47:15;;;;;;;3.30;3.00;;;18.50;23.60;;;;;;5066547;28;20198;-88
2021/05/30 13:49:42;;;;;;;6.10;3.13;;;18.60;22.80;;;;;;5071739;28;20234;-89
2021/05/30 13:52:09;;;;;;;4.20;3.30;;;18.70;24.30;;;;;;5072542;28;20202;-88
2021/05/30 13:54:36;;;;;;;3.85;3.50;;;18.90;23.30;;;;;;5065706;28;20700;-90
2021/05/30 13:57:03;;;;;;;5.18;3.40;;;18.90;24.50;;;;;;5070693;28;20205;-88
2021/05/30 13:59:32;;;;;;;3.40;3.10;;;18.70;23.30;;;;;;5076514;28;20233;-92
2021/05/30 14:02:02;;;;;;;5.35;3.50;;;18.20;25.20;;;;;;5083453;28;20201;-88
2021/05/30 14:04:32;;;;;;;3.45;3.10;;;17.70;26.40;;;;;;5061161;28;20259;-87
2021/05/30 14:06:59;;;;;;;5.07;3.35;;;17.70;26.00;;;;;;5066799;28;20204;-88
2021/05/30 14:09:25;;;;;;;4.03;3.40;;;17.80;26.10;;;;;;5063853;28;20242;-88
2021/05/30 14:11:52;;;;;;;3.33;3.00;;;18.00;25.30;;;;;;5061831;28;20198;-89
2021/05/30 14:14:19;;;;;;;3.92;3.53;;;17.80;24.80;;;;;;5059309;28;20218;-90
2021/05/30 14:16:45;;;;;;;5.47;3.40;;;17.60;24.80;;;;;;5059348;28;20297;-90
2021/05/30 14:19:12;;;;;;;3.97;2.78;;;17.70;25.90;;;;;;5054543;28;20222;-90
2021/05/30 14:21:39;;;;;;;3.38;2.70;;;17.60;26.70;;;;;;5058317;28;20292;-90
2021/05/30 14:24:06;;;;;;;4.32;3.28;;;17.90;26.40;;;;;;5061775;28;20252;-88
2021/05/30 14:26:33;;;;;;;5.05;3.40;;;18.10;24.60;;;;;;5065762;28;20190;-87
2021/05/30 14:28:59;;;;;;;4.07;3.10;;;18.20;24.20;;;;;;5075350;28;20221;-90
2021/05/30 14:31:41;;;;;;;5.60;2.65;;;18.00;22.80;;;;;;5066530;28;20193;-87
2021/05/30 14:34:08;;;;;;;2.92;2.35;;;18.00;23.50;;;;;;5066421;28;20238;-88
2021/05/30 14:36:34;;;;;;;4.30;2.78;;;17.90;23.60;;;;;;5076663;28;20212;-88
2021/05/30 14:39:01;;;;;;;5.80;2.78;;;18.00;23.60;;;;;;5083115;28;20213;-87
2021/05/30 14:41:29;;;;;;;5.53;2.72;;;18.00;21.90;;;;;;5086141;28;20207;-88
2021/05/30 14:43:55;;;;;;;3.55;3.00;;;18.00;22.70;;;;;;5068106;28;20238;-89
2021/05/30 14:46:22;;;;;;;3.47;2.60;;;17.80;23.70;;;;;;5055531;28;20232;-89
2021/05/30 14:48:49;;;;;;;3.50;2.58;;;17.90;25.10;;;;;;5073198;28;20229;-88
2021/05/30 14:51:15;;;;;;;3.15;2.85;;;18.00;22.30;;;;;;5070832;28;20289;-89
2021/05/30 14:53:42;;;;;;;2.97;2.65;;;17.80;23.40;;;;;;5068135;28;20769;-91
2021/05/30 14:56:08;;;;;;;4.25;2.92;;;17.90;21.70;;;;;;5069379;28;20205;-89
2021/05/30 14:58:35;;;;;;;2.85;2.65;;;18.00;21.80;;;;;;5068082;28;20236;-89
2021/05/30 15:01:01;;;;;;;3.78;3.08;;;17.90;22.60;;;;;;5068729;28;20198;-89